Time;durP1;ratioP1;P1;durP2;ratioP2;P2;SDS_P1;SDS_P2;PMS_P1;PMS_P2;Temp;Humidity;BMP_temperature;BMP_pressure;BME280_temperature;BME280_humidity;BME280_pressure;Samples;Min_cycle;Max_cycle;Signal;HPM_P1;HPM_P2
2022/10/12 00:03:24;;;;;;;31.12;17.05;;;;;;;8.17;92.19;101290.45;2841303;81;21046;-88
2022/10/12 00:07:25;;;;;;;20.43;12.90;;;;;;;8.13;92.38;101289.76;2850577;82;21059;-88
2022/10/12 00:11:28;;;;;;;19.87;12.55;;;;;;;8.09;91.99;101291.75;2862703;81;21066;-88
2022/10/12 00:15:29;;;;;;;35.52;15.98;;;;;;;8.06;92.28;101286.62;2848195;81;21079;-88
2022/10/12 00:19:30;;;;;;;17.32;12.65;;;;;;;8.06;93.44;101290.59;2850874;81;21006;-88
2022/10/12 00:23:33;;;;;;;17.10;10.98;;;;;;;8.00;95.37;101286.94;2784037;82;21042;-88
2022/10/12 00:27:34;;;;;;;19.77;13.32;;;;;;;7.98;93.70;101281.74;2855260;82;21074;-88
2022/10/12 00:31:35;;;;;;;18.10;11.48;;;;;;;7.92;92.65;101284.70;2864727;81;21011;-87
2022/10/12 00:35:36;;;;;;;29.85;13.58;;;;;;;7.78;92.91;101294.73;2854720;81;21012;-87
2022/10/12 00:39:37;;;;;;;20.68;12.07;;;;;;;7.66;93.43;101289.63;2831740;82;21059;-86
2022/10/12 00:43:42;;;;;;;15.03;11.65;;;;;;;7.67;93.96;101290.50;2859953;81;21050;-87
2022/10/12 00:47:55;;;;;;;18.80;10.48;;;;;;;7.69;93.55;101291.27;2805698;83;21030;-87
2022/10/12 00:52:01;;;;;;;21.05;12.05;;;;;;;7.69;92.99;101295.25;2866909;82;21607;-87
2022/10/12 00:56:06;;;;;;;19.92;11.63;;;;;;;7.69;92.94;101297.41;2853311;81;21023;-88
2022/10/12 01:00:10;;;;;;;16.20;11.20;;;;;;;7.61;92.68;101301.41;2862210;81;21681;-87
2022/10/12 01:04:12;;;;;;;19.37;11.57;;;;;;;7.56;93.24;101293.70;2839754;81;21023;-87
2022/10/12 01:08:13;;;;;;;24.30;10.53;;;;;;;7.54;93.29;101292.47;2813610;82;21115;-87
2022/10/12 01:12:16;;;;;;;20.15;13.25;;;;;;;7.49;94.81;101290.55;2844601;81;21118;-87
2022/10/12 01:16:38;;;;;;;18.07;11.38;;;;;;;7.39;95.21;101293.27;2826390;82;21045;-87
2022/10/12 01:21:04;;;;;;;19.65;11.65;;;;;;;7.36;95.11;101290.79;2854626;81;21568;-87
2022/10/12 01:25:40;;;;;;;20.17;12.07;;;;;;;7.37;94.35;101299.98;2861350;82;20992;-87
2022/10/12 01:30:14;;;;;;;15.07;10.43;;;;;;;7.35;93.79;101302.31;2819834;82;21463;-87
2022/10/12 01:34:27;;;;;;;18.25;12.15;;;;;;;7.27;93.32;101307.55;2829659;82;21082;-87
2022/10/12 01:39:00;;;;;;;15.68;10.28;;;;;;;7.27;93.73;101308.00;2855453;81;21141;-87
2022/10/12 01:43:02;;;;;;;16.23;11.33;;;;;;;7.25;93.12;101308.06;2824109;81;21044;-87
2022/10/12 01:47:03;;;;;;;20.95;10.18;;;;;;;7.08;94.70;101305.45;2843080;82;21046;-87
2022/10/12 01:51:04;;;;;;;16.93;10.48;;;;;;;7.02;93.86;101308.39;2833931;81;21039;-87
2022/10/12 01:55:44;;;;;;;14.10;10.43;;;;;;;7.03;94.56;101304.36;2851656;82;21059;-87
2022/10/12 02:00:00;;;;;;;19.20;10.25;;;;;;;7.06;94.43;101301.55;2829325;82;21590;-87
2022/10/12 02:04:29;;;;;;;18.17;10.57;;;;;;;7.08;93.88;101296.20;2842417;82;21554;-87
2022/10/12 02:08:36;;;;;;;15.58;11.68;;;;;;;7.08;93.57;101294.39;2839021;81;21591;-87
2022/10/12 02:12:40;;;;;;;15.83;10.50;;;;;;;7.02;93.50;101295.16;2849315;82;21046;-87
2022/10/12 02:16:53;;;;;;;20.72;11.97;;;;;;;6.92;94.13;101296.97;2854987;82;21105;-87
2022/10/12 02:20:57;;;;;;;12.33;9.80;;;;;;;6.95;94.99;101299.45;2856930;82;21071;-87
2022/10/12 02:25:04;;;;;;;14.18;9.73;;;;;;;7.03;94.65;101300.84;2867813;82;21583;-87
2022/10/12 02:29:11;;;;;;;18.35;11.55;;;;;;;7.08;94.16;101300.17;2854398;81;21101;-87
2022/10/12 02:33:26;;;;;;;18.40;11.25;;;;;;;7.10;93.94;101300.45;2843784;82;21027;-86
2022/10/12 02:37:54;;;;;;;14.70;10.65;;;;;;;7.05;93.74;101300.30;2832480;82;21025;-86
2022/10/12 02:42:01;;;;;;;20.02;12.00;;;;;;;7.02;93.25;101307.07;2820624;81;21490;-86
2022/10/12 02:46:06;;;;;;;13.18;10.88;;;;;;;6.98;93.24;101295.81;2792187;81;21088;-87
2022/10/12 02:50:08;;;;;;;17.10;10.60;;;;;;;6.96;93.16;101289.71;2850898;81;21137;-86
2022/10/12 02:54:10;;;;;;;15.53;11.18;;;;;;;6.92;92.12;101294.77;2871001;80;21083;-87
2022/10/12 02:58:11;;;;;;;11.10;8.25;;;;;;;6.85;92.02;101296.41;2856579;80;21090;-87
2022/10/12 03:02:12;;;;;;;15.63;10.30;;;;;;;6.80;92.17;101294.92;2849959;81;21082;-87
2022/10/12 03:06:13;;;;;;;16.85;10.20;;;;;;;6.77;93.40;101292.44;2702674;84;21035;-87
2022/10/12 03:10:14;;;;;;;14.60;10.53;;;;;;;6.76;93.14;101293.38;2849276;81;21157;-87
2022/10/12 03:14:16;;;;;;;12.28;6.97;;;;;;;6.71;92.41;101294.47;2864229;82;21157;-87
2022/10/12 03:18:17;;;;;;;13.83;9.25;;;;;;;6.68;92.04;101289.34;2855698;82;22089;-87
2022/10/12 03:22:19;;;;;;;12.30;8.50;;;;;;;6.62;92.17;101295.39;2854816;82;21605;-86
2022/10/12 03:26:20;;;;;;;15.00;10.23;;;;;;;6.41;93.49;101296.34;2858113;82;21858;-86
2022/10/12 03:30:21;;;;;;;13.70;8.53;;;;;;;6.39;94.43;101290.27;2865834;81;21562;-87
2022/10/12 03:34:22;;;;;;;13.60;9.08;;;;;;;6.36;94.23;101291.75;2837686;82;21004;-87
2022/10/12 03:38:23;;;;;;;20.35;10.35;;;;;;;6.22;94.71;101301.66;2849186;81;21098;-87
2022/10/12 03:42:24;;;;;;;12.15;7.03;;;;;;;6.22;95.24;101296.83;2843312;82;21050;-87
2022/10/12 03:46:25;;;;;;;16.40;9.60;;;;;;;6.26;95.46;101297.06;2841746;80;21051;-87
2022/10/12 03:50:26;;;;;;;12.18;8.83;;;;;;;6.34;96.00;101298.03;2863445;81;21060;-87
2022/10/12 03:54:27;;;;;;;15.90;9.73;;;;;;;6.37;95.95;101292.14;2850699;81;21066;-86
2022/10/12 03:58:28;;;;;;;14.20;10.60;;;;;;;6.38;95.37;101296.94;2840878;81;21043;-87
2022/10/12 04:02:30;;;;;;;14.18;7.28;;;;;;;6.33;96.12;101289.70;2863624;80;21518;-86
2022/10/12 04:06:31;;;;;;;15.63;9.60;;;;;;;6.35;95.90;101287.39;2853036;82;21526;-88
2022/10/12 04:10:32;;;;;;;11.80;8.68;;;;;;;6.41;95.11;101292.38;2842461;82;21579;-87
2022/10/12 04:14:33;;;;;;;14.23;7.72;;;;;;;6.43;94.60;101287.87;2845458;81;20983;-87
2022/10/12 04:18:34;;;;;;;21.05;9.03;;;;;;;6.41;93.81;101291.05;2861103;82;21618;-87
2022/10/12 04:22:36;;;;;;;12.05;8.38;;;;;;;6.39;94.04;101294.23;2851943;81;21572;-87
2022/10/12 04:26:37;;;;;;;19.32;9.88;;;;;;;6.38;93.54;101296.49;2846360;82;20986;-87
2022/10/12 04:30:38;;;;;;;10.08;7.10;;;;;;;6.40;94.24;101302.56;2858983;81;21047;-87
2022/10/12 04:34:39;;;;;;;20.72;9.50;;;;;;;6.41;93.77;101303.43;2795256;82;21030;-87
2022/10/12 04:38:41;;;;;;;17.52;8.73;;;;;;;6.17;93.71;101297.52;2862768;80;21578;-87
2022/10/12 04:42:42;;;;;;;9.73;8.68;;;;;;;5.85;95.77;101308.14;2847446;80;21024;-87
2022/10/12 04:46:43;;;;;;;8.20;7.25;;;;;;;5.61;97.10;101310.58;2846405;82;21555;-87
2022/10/12 04:50:44;;;;;;;13.70;8.85;;;;;;;5.43;100.00;101314.42;2859176;81;21442;-87
2022/10/12 04:54:45;;;;;;;13.25;8.50;;;;;;;5.38;99.11;101309.81;2778959;82;21077;-87
2022/10/12 04:58:46;;;;;;;17.25;8.58;;;;;;;5.39;99.70;101310.20;2839636;82;21042;-87
2022/10/12 05:02:47;;;;;;;19.17;8.88;;;;;;;5.49;100.00;101315.46;2847028;81;21070;-87
2022/10/12 05:06:48;;;;;;;13.48;8.80;;;;;;;5.67;100.00;101314.25;2845649;81;21031;-88
2022/10/12 05:10:49;;;;;;;16.95;9.10;;;;;;;5.76;97.68;101318.27;2846966;81;21593;-87
2022/10/12 05:14:50;;;;;;;16.37;9.58;;;;;;;5.72;96.55;101318.89;2845287;81;21571;-87
2022/10/12 05:18:51;;;;;;;15.35;8.80;;;;;;;5.70;96.67;101323.38;2853815;81;21574;-87
2022/10/12 05:22:52;;;;;;;12.75;8.35;;;;;;;5.68;96.97;101325.20;2850998;81;21134;-88
2022/10/12 05:26:53;;;;;;;15.18;7.75;;;;;;;5.74;98.09;101325.40;2862912;81;21543;-88
2022/10/12 05:30:55;;;;;;;16.73;9.10;;;;;;;5.85;97.27;101329.75;2847261;81;21565;-87
2022/10/12 05:34:56;;;;;;;12.85;8.45;;;;;;;5.96;97.05;101322.17;2839822;82;21645;-87
2022/10/12 05:38:57;;;;;;;12.13;7.20;;;;;;;5.97;95.72;101323.05;2848779;82;20999;-88
2022/10/12 05:42:58;;;;;;;17.10;8.45;;;;;;;5.92;96.17;101324.56;2858659;82;21533;-87
2022/10/12 05:46:59;;;;;;;14.10;9.28;;;;;;;5.87;97.65;101323.93;2851083;81;21018;-87
2022/10/12 05:51:00;;;;;;;24.37;8.85;;;;;;;6.03;99.49;101322.78;2779790;82;21066;-88
2022/10/12 05:55:01;;;;;;;24.27;9.53;;;;;;;6.16;98.96;101324.39;2851370;82;21570;-88
2022/10/12 05:59:03;;;;;;;19.27;11.20;;;;;;;6.19;99.97;101315.02;2847954;82;21542;-87
2022/10/12 06:03:04;;;;;;;17.10;11.53;;;;;;;6.17;100.00;101323.94;2850554;82;21502;-88
2022/10/12 06:07:05;;;;;;;22.62;12.58;;;;;;;6.17;100.00;101323.45;2843874;82;21729;-87
2022/10/12 06:11:06;;;;;;;56.48;27.42;;;;;;;6.26;100.00;101330.09;2863943;81;21553;-88
2022/10/12 06:15:09;;;;;;;116.82;55.67;;;;;;;6.31;100.00;101328.12;2847053;82;21006;-88
2022/10/12 06:19:11;;;;;;;73.50;37.80;;;;;;;6.57;100.00;101327.33;2869925;82;21019;-88
2022/10/12 06:23:12;;;;;;;56.48;33.00;;;;;;;6.89;100.00;101340.77;2841612;81;21027;-88
2022/10/12 06:27:13;;;;;;;90.60;44.77;;;;;;;7.20;100.00;101340.53;2813209;81;21051;-88
2022/10/12 06:31:14;;;;;;;117.75;53.17;;;;;;;7.58;100.00;101344.80;2774963;82;21027;-88
2022/10/12 06:35:15;;;;;;;37.65;23.00;;;;;;;7.92;100.00;101348.78;2838477;82;20991;-88
2022/10/12 06:39:16;;;;;;;25.05;14.60;;;;;;;8.13;100.00;101340.98;2803532;82;21024;-88
2022/10/12 06:43:18;;;;;;;20.52;12.28;;;;;;;8.44;100.00;101343.73;2838462;82;20999;-88
2022/10/12 06:47:20;;;;;;;19.32;11.28;;;;;;;8.81;100.00;101348.77;2855414;82;21014;-88
2022/10/12 06:51:21;;;;;;;12.37;9.48;;;;;;;8.98;99.34;101347.32;2844692;81;21058;-88
2022/10/12 06:55:22;;;;;;;11.60;8.00;;;;;;;9.23;98.09;101353.83;2857925;82;21099;-88
2022/10/12 06:59:23;;;;;;;13.30;9.63;;;;;;;9.21;95.99;101346.44;2854965;81;21083;-88
2022/10/12 07:03:24;;;;;;;18.57;11.30;;;;;;;9.33;97.86;101354.14;2847264;82;21062;-88
2022/10/12 07:07:31;;;;;;;20.43;10.08;;;;;;;9.60;98.39;101355.23;2870729;81;21506;-88
2022/10/12 07:11:32;;;;;;;;;;;;;;;9.86;97.03;101357.62;2813713;81;21046;-88
2022/10/12 07:15:33;;;;;;;17.92;9.73;;;;;;;9.97;94.74;101355.63;2829623;81;20143;-88
2022/10/12 07:19:34;;;;;;;19.25;10.38;;;;;;;10.12;95.82;101353.34;2854514;81;21045;-88
2022/10/12 07:23:37;;;;;;;13.90;9.00;;;;;;;10.20;94.44;101354.66;2848385;81;21013;-88
2022/10/12 07:27:38;;;;;;;11.38;8.18;;;;;;;10.32;94.89;101357.01;2852499;81;21034;-88
2022/10/12 07:31:41;;;;;;;16.75;10.23;;;;;;;10.43;93.20;101359.42;2839678;82;21567;-88
2022/10/12 07:35:42;;;;;;;14.13;8.05;;;;;;;10.69;94.29;101358.66;2856588;82;20996;-88
2022/10/12 07:39:43;;;;;;;13.13;7.70;;;;;;;11.00;92.30;101356.64;2857365;82;21094;-88
2022/10/12 07:43:46;;;;;;;13.80;8.20;;;;;;;11.25;89.28;101357.19;2864864;81;20990;-88
2022/10/12 07:47:48;;;;;;;12.10;6.53;;;;;;;11.47;89.27;101356.19;2838046;82;21087;-88
2022/10/12 07:51:49;;;;;;;9.55;6.65;;;;;;;11.60;87.65;101354.88;2852010;81;21028;-88
2022/10/12 07:55:50;;;;;;;12.47;8.25;;;;;;;11.71;86.13;101362.50;2839487;81;20994;-88
2022/10/12 07:59:51;;;;;;;14.63;8.98;;;;;;;11.86;87.21;101358.38;2849553;81;20995;-88
2022/10/12 08:03:53;;;;;;;22.65;8.23;;;;;;;12.00;87.62;101353.42;2852707;82;21691;-88
2022/10/12 08:07:54;;;;;;;19.62;7.28;;;;;;;12.18;86.28;101353.94;2833353;82;20964;-88
2022/10/12 08:11:55;;;;;;;16.87;8.45;;;;;;;12.31;84.59;101351.23;2844764;82;21051;-88
2022/10/12 08:15:57;;;;;;;18.05;8.33;;;;;;;12.44;84.36;101344.52;2850409;81;21047;-88
2022/10/12 08:19:58;;;;;;;23.20;8.48;;;;;;;12.29;85.25;101345.16;2833893;81;21031;-88
2022/10/12 08:23:59;;;;;;;12.55;8.45;;;;;;;12.36;87.01;101336.23;2863122;81;21059;-88
2022/10/12 08:28:00;;;;;;;13.95;8.60;;;;;;;12.52;86.99;101338.63;2857037;81;21554;-88
2022/10/12 08:32:02;;;;;;;21.05;8.90;;;;;;;12.68;85.44;101338.37;2806701;81;29816;-88
2022/10/12 08:36:05;;;;;;;19.70;10.00;;;;;;;12.74;85.16;101338.37;2855908;81;21065;-88
2022/10/12 08:40:17;;;;;;;14.50;8.50;;;;;;;12.75;86.29;101336.06;2850702;81;21086;-88
2022/10/12 08:44:46;;;;;;;15.08;8.70;;;;;;;12.73;87.61;101340.20;2826375;82;21079;-88
2022/10/12 08:49:08;;;;;;;20.40;10.68;;;;;;;12.75;87.04;101338.73;2849744;82;21003;-87
2022/10/12 08:53:24;;;;;;;13.20;8.43;;;;;;;13.02;86.38;101345.66;2832783;82;21047;-87
2022/10/12 08:57:25;;;;;;;14.20;10.15;;;;;;;13.13;84.65;101340.34;2864511;82;21039;-87
2022/10/12 09:01:38;;;;;;;15.58;9.58;;;;;;;13.10;86.89;101329.42;2848699;81;21041;-87
2022/10/12 09:06:09;;;;;;;18.32;10.68;;;;;;;13.35;85.75;101326.67;2846832;81;21042;-87
2022/10/12 09:10:39;;;;;;;14.70;8.40;;;;;;;13.56;85.19;101329.55;2868021;82;21041;-87
2022/10/12 09:14:41;;;;;;;15.55;9.28;;;;;;;13.84;83.68;101323.34;2850163;82;21054;-87
2022/10/12 09:18:48;;;;;;;25.85;9.83;;;;;;;13.95;83.47;101329.17;2845461;82;21019;-87
2022/10/12 09:22:54;;;;;;;16.57;9.40;;;;;;;14.15;83.04;101330.27;2860529;82;21586;-87
2022/10/12 09:26:59;;;;;;;20.85;10.15;;;;;;;14.32;83.33;101327.55;2814127;83;21109;-87
2022/10/12 09:31:22;;;;;;;14.85;8.30;;;;;;;14.41;81.11;101319.26;2814215;82;21134;-87
2022/10/12 09:35:24;;;;;;;13.88;8.73;;;;;;;14.55;79.10;101318.15;2843260;82;21122;-87
2022/10/12 09:39:35;;;;;;;9.50;7.60;;;;;;;14.74;78.77;101316.62;2857419;81;21075;-87
2022/10/12 09:43:38;;;;;;;10.63;5.85;;;;;;;14.81;78.64;101310.63;2851661;82;21034;-87
2022/10/12 09:47:40;;;;;;;11.25;7.58;;;;;;;14.79;78.08;101315.77;2840219;81;21074;-88
2022/10/12 09:51:41;;;;;;;18.95;8.00;;;;;;;14.72;76.98;101312.75;2849374;81;21054;-87
2022/10/12 09:55:53;;;;;;;16.82;6.08;;;;;;;14.98;78.40;101321.77;2865449;82;21022;-87
2022/10/12 09:59:55;;;;;;;13.25;5.03;;;;;;;15.18;76.06;101317.41;2856587;82;21085;-87
2022/10/12 10:04:10;;;;;;;14.93;8.83;;;;;;;15.14;73.90;101315.98;2859775;82;21539;-87
2022/10/12 10:08:21;;;;;;;9.03;5.47;;;;;;;15.05;72.45;101312.72;2845258;82;21024;-87
2022/10/12 10:12:25;;;;;;;5.72;4.42;;;;;;;15.16;73.20;101316.69;2865269;81;21030;-87
2022/10/12 10:16:29;;;;;;;8.20;5.55;;;;;;;15.27;72.12;101309.07;2863842;81;21071;-87
2022/10/12 10:20:36;;;;;;;11.00;5.03;;;;;;;15.27;72.22;101307.73;2874509;81;21018;-87
2022/10/12 10:24:37;;;;;;;16.10;5.75;;;;;;;15.36;70.67;101305.58;2855297;82;21016;-87
2022/10/12 10:28:42;;;;;;;9.70;4.42;;;;;;;15.54;70.43;101305.84;2844454;81;21870;-87
2022/10/12 10:32:45;;;;;;;10.98;5.22;;;;;;;15.49;70.98;101295.98;2842581;81;20999;-87
2022/10/12 10:36:53;;;;;;;7.37;5.03;;;;;;;15.63;70.51;101294.80;2866947;82;21011;-87
2022/10/12 10:40:56;;;;;;;11.70;4.37;;;;;;;15.78;69.31;101290.39;2840489;82;21499;-87
2022/10/12 10:45:07;;;;;;;7.65;4.05;;;;;;;15.74;67.19;101286.29;2864972;81;21066;-87
2022/10/12 10:49:14;;;;;;;10.68;5.95;;;;;;;15.77;67.84;101285.53;2856392;81;21031;-87
2022/10/12 10:53:22;;;;;;;8.08;3.87;;;;;;;15.88;66.79;101281.03;2849268;82;21546;-87
2022/10/12 10:57:24;;;;;;;9.50;4.80;;;;;;;15.99;66.50;101275.61;2851329;81;21657;-87
2022/10/12 11:01:52;;;;;;;17.37;5.35;;;;;;;16.06;66.88;101275.41;2821612;82;21100;-87
2022/10/12 11:06:20;;;;;;;6.70;4.00;;;;;;;16.01;67.50;101268.74;2833508;82;21329;-87
2022/10/12 11:10:49;;;;;;;6.17;4.25;;;;;;;16.02;66.19;101264.59;2870430;80;21760;-87
2022/10/12 11:15:01;;;;;;;10.60;4.33;;;;;;;16.05;65.59;101262.97;2855804;81;21055;-87
2022/10/12 11:19:32;;;;;;;8.45;3.62;;;;;;;16.11;65.06;101258.89;2854850;82;21500;-87
2022/10/12 11:24:00;;;;;;;15.13;3.67;;;;;;;16.19;63.43;101260.89;2841923;82;20982;-87
2022/10/12 11:28:01;;;;;;;11.75;4.33;;;;;;;16.10;62.40;101252.66;2843743;82;21366;-87
2022/10/12 11:32:10;;;;;;;9.75;2.92;;;;;;;15.93;65.52;101245.31;2862496;82;21660;-87
2022/10/12 11:36:22;;;;;;;8.98;2.45;;;;;;;15.88;63.15;101248.84;2859663;81;21031;-87
2022/10/12 11:40:31;;;;;;;6.62;2.62;;;;;;;15.99;60.54;101239.38;2855395;82;21106;-87
2022/10/12 11:44:45;;;;;;;7.87;2.37;;;;;;;16.08;62.62;101233.68;2847731;82;21002;-85
2022/10/12 11:48:58;;;;;;;4.10;2.10;;;;;;;16.17;62.93;101232.00;2808264;82;21086;-85
2022/10/12 11:53:03;;;;;;;8.73;3.98;;;;;;;16.02;63.47;101231.56;2843519;82;21412;-86
2022/10/12 11:57:12;;;;;;;10.68;4.12;;;;;;;16.13;61.12;101222.03;2817732;82;21554;-86
2022/10/12 12:01:48;;;;;;;16.10;8.33;;;;;;;16.28;61.73;101225.14;2855579;81;21050;-86
2022/10/12 12:05:49;;;;;;;18.82;5.97;;;;;;;16.31;60.57;101220.86;2852321;82;21054;-86
2022/10/12 12:09:52;;;;;;;2.98;2.10;;;;;;;16.39;60.87;101210.73;2856024;82;21079;-86
2022/10/12 12:14:28;;;;;;;4.78;2.60;;;;;;;16.30;62.46;101208.91;2842998;81;21050;-86
2022/10/12 12:18:34;;;;;;;5.83;1.50;;;;;;;16.45;61.74;101209.31;2863491;82;20989;-86
2022/10/12 12:22:53;;;;;;;6.33;2.08;;;;;;;16.35;60.42;101214.21;2855607;81;21527;-86
2022/10/12 12:26:54;;;;;;;10.30;2.67;;;;;;;16.29;60.30;101208.04;2847025;82;21018;-86
2022/10/12 12:30:59;;;;;;;6.30;3.00;;;;;;;16.31;60.53;101212.80;2837043;82;21842;-86
2022/10/12 12:35:00;;;;;;;11.40;4.10;;;;;;;16.40;63.92;101205.23;2851025;81;21089;-86
2022/10/12 12:39:05;;;;;;;5.53;2.10;;;;;;;16.30;61.14;101211.59;2855529;81;21038;-86
2022/10/12 12:43:31;;;;;;;7.60;2.37;;;;;;;16.35;60.74;101203.47;2852765;82;21036;-86
2022/10/12 12:47:38;;;;;;;4.47;2.22;;;;;;;16.38;60.49;101200.50;2863573;81;21113;-86
2022/10/12 12:51:41;;;;;;;;;;;;;;;16.39;60.53;101198.16;2847317;81;21639;-86
2022/10/12 12:56:04;;;;;;;18.77;2.37;;;;;;;16.42;58.88;101198.39;2841400;82;20122;-86
2022/10/12 13:00:25;;;;;;;6.03;2.33;;;;;;;16.53;60.34;101189.33;2879923;82;21021;-87
2022/10/12 13:05:07;;;;;;;8.48;2.22;;;;;;;16.55;58.70;101191.38;2850944;82;21059;-87
2022/10/12 13:09:44;;;;;;;4.95;2.00;;;;;;;16.56;59.12;101189.87;2876243;82;21044;-87
2022/10/12 13:14:09;;;;;;;6.25;2.60;;;;;;;16.62;59.65;101179.06;2847303;82;21002;-87
2022/10/12 13:18:25;;;;;;;8.55;3.33;;;;;;;16.67;60.10;101184.01;2853796;82;21085;-87
2022/10/12 13:22:33;;;;;;;4.45;2.58;;;;;;;16.71;59.52;101173.31;2840666;82;21016;-87
2022/10/12 13:26:36;;;;;;;6.28;2.12;;;;;;;16.68;60.19;101168.24;2845279;81;20987;-86
2022/10/12 13:31:00;;;;;;;13.40;3.10;;;;;;;16.70;61.37;101172.97;2848039;81;21070;-87
2022/10/12 13:35:07;;;;;;;7.30;1.85;;;;;;;16.70;60.61;101168.94;2864712;82;20992;-87
2022/10/12 13:39:16;;;;;;;5.70;2.47;;;;;;;16.73;59.88;101157.07;2858271;81;21020;-87
2022/10/12 13:43:56;;;;;;;7.40;3.27;;;;;;;16.62;60.50;101161.59;2834799;81;21094;-87
2022/10/12 13:48:03;;;;;;;3.45;2.12;;;;;;;16.66;60.19;101161.66;2850724;81;21099;-86
2022/10/12 13:52:17;;;;;;;5.60;2.15;;;;;;;16.64;60.14;101158.27;2845513;82;21043;-87
2022/10/12 13:56:22;;;;;;;8.10;3.17;;;;;;;16.52;58.46;101150.88;2850416;81;21060;-86
2022/10/12 14:00:25;;;;;;;7.15;1.92;;;;;;;16.42;59.75;101142.83;2849846;81;21015;-86
2022/10/12 14:04:32;;;;;;;5.83;1.80;;;;;;;16.50;59.46;101143.46;2806699;82;21051;-87
2022/10/12 14:08:34;;;;;;;8.65;2.42;;;;;;;16.49;59.30;101143.11;2861049;82;21038;-86
2022/10/12 14:12:36;;;;;;;4.97;1.70;;;;;;;16.42;58.61;101140.14;2849843;81;21018;-86
2022/10/12 14:16:38;;;;;;;18.30;11.00;;;;;;;16.42;58.66;101134.78;2843289;82;21036;-86
2022/10/12 14:20:39;;;;;;;5.30;2.52;;;;;;;16.41;57.96;101133.59;2849591;81;21004;-86
2022/10/12 14:24:40;;;;;;;6.10;2.45;;;;;;;16.37;59.11;101134.37;2848510;81;21059;-86
2022/10/12 14:28:42;;;;;;;5.60;2.20;;;;;;;16.28;59.54;101129.84;2852358;82;20998;-86
2022/10/12 14:32:44;;;;;;;6.90;2.12;;;;;;;16.05;61.00;101126.62;2850615;81;21034;-86
2022/10/12 14:36:45;;;;;;;12.78;2.77;;;;;;;15.81;61.43;101131.37;2859922;82;21030;-86
2022/10/12 14:40:46;;;;;;;4.53;2.75;;;;;;;15.72;61.36;101133.53;2870544;80;21070;-87
2022/10/12 14:44:49;;;;;;;8.85;2.47;;;;;;;15.68;61.58;101132.11;2840462;81;20996;-87
2022/10/12 14:48:50;;;;;;;6.05;3.08;;;;;;;15.64;62.31;101128.02;2863155;81;21626;-87
2022/10/12 14:52:55;;;;;;;9.13;2.72;;;;;;;15.60;62.84;101126.61;2863667;82;21017;-87
2022/10/12 14:57:01;;;;;;;6.08;2.37;;;;;;;15.54;63.24;101122.16;2849772;82;21078;-87
2022/10/12 15:01:02;;;;;;;10.28;2.33;;;;;;;15.47;63.82;101119.66;2825214;81;21051;-87
2022/10/12 15:05:03;;;;;;;4.53;1.92;;;;;;;15.39;64.34;101122.19;2862186;81;21023;-87
2022/10/12 15:09:05;;;;;;;8.48;3.05;;;;;;;15.26;64.91;101119.25;2861455;82;20984;-87
2022/10/12 15:13:06;;;;;;;7.72;3.27;;;;;;;15.11;65.83;101118.78;2842296;81;21067;-87
2022/10/12 15:17:13;;;;;;;6.75;3.92;;;;;;;14.88;66.79;101119.45;2818111;82;21020;-90
2022/10/12 15:21:16;;;;;;;8.30;3.25;;;;;;;14.76;67.66;101113.84;2845436;81;21527;-89
2022/10/12 15:25:29;;;;;;;8.80;3.87;;;;;;;14.72;68.10;101110.57;2854135;81;21046;-89
2022/10/12 15:29:30;;;;;;;6.90;3.92;;;;;;;14.66;68.60;101106.55;2858564;80;21067;-88
2022/10/12 15:33:31;;;;;;;10.80;3.83;;;;;;;14.63;68.86;101104.14;2858588;81;21515;-89
2022/10/12 15:37:32;;;;;;;16.57;3.87;;;;;;;14.63;69.56;101104.14;2854408;80;21572;-89
2022/10/12 15:41:34;;;;;;;5.37;2.45;;;;;;;14.61;69.45;101097.22;2857238;82;21007;-90
2022/10/12 15:45:38;;;;;;;5.92;2.58;;;;;;;14.61;69.09;101104.77;2863186;82;21044;-89
2022/10/12 15:49:39;;;;;;;6.45;3.05;;;;;;;14.61;68.94;101103.44;2861119;81;21091;-90
2022/10/12 15:53:41;;;;;;;7.42;3.15;;;;;;;14.56;68.94;101101.14;2862092;81;21031;-89
2022/10/12 15:57:42;;;;;;;12.28;5.10;;;;;;;14.46;69.06;101095.38;2854027;81;21052;-88
2022/10/12 16:01:43;;;;;;;58.55;38.55;;;;;;;14.38;69.44;101100.91;2849273;81;21013;-89
2022/10/12 16:05:45;;;;;;;76.25;48.05;;;;;;;14.30;69.91;101098.02;2854279;80;21007;-89
2022/10/12 16:09:46;;;;;;;94.47;56.45;;;;;;;14.23;70.07;101095.00;2860999;80;21095;-89
2022/10/12 16:13:48;;;;;;;65.37;45.23;;;;;;;14.15;70.47;101097.49;2841592;82;21071;-90
2022/10/12 16:17:50;;;;;;;32.45;24.30;;;;;;;14.06;70.79;101101.79;2840279;81;21055;-89
2022/10/12 16:21:51;;;;;;;19.27;14.35;;;;;;;13.96;71.17;101097.70;2864191;80;21049;-88
2022/10/12 16:25:53;;;;;;;12.15;6.80;;;;;;;13.88;71.55;101092.62;2821393;81;21084;-88
2022/10/12 16:29:54;;;;;;;11.60;7.62;;;;;;;13.77;71.99;101088.17;2852220;81;21012;-89
2022/10/12 16:33:57;;;;;;;27.37;14.45;;;;;;;13.65;72.80;101090.87;2835768;81;21011;-90
2022/10/12 16:37:58;;;;;;;31.62;17.82;;;;;;;13.51;73.26;101085.33;2779285;82;21274;-89
2022/10/12 16:42:00;;;;;;;29.65;15.38;;;;;;;13.41;73.50;101088.37;2860960;81;21020;-89
2022/10/12 16:46:01;;;;;;;25.32;13.60;;;;;;;13.32;73.63;101091.77;2848654;80;21058;-88
2022/10/12 16:50:02;;;;;;;24.92;12.37;;;;;;;13.17;74.05;101092.06;2848170;82;21085;-88
2022/10/12 16:54:04;;;;;;;22.10;13.08;;;;;;;13.04;74.43;101096.67;2823111;81;21080;-88
2022/10/12 16:58:05;;;;;;;12.75;5.95;;;;;;;12.96;75.07;101090.60;2843772;82;21055;-89
2022/10/12 17:02:07;;;;;;;12.13;6.12;;;;;;;12.87;75.65;101094.84;2846190;81;21094;-88
2022/10/12 17:06:08;;;;;;;10.25;6.25;;;;;;;12.80;75.71;101102.98;2863051;80;21051;-88
2022/10/12 17:10:10;;;;;;;25.97;6.33;;;;;;;12.70;76.17;101099.69;2857920;81;21054;-88
2022/10/12 17:14:15;;;;;;;9.70;6.10;;;;;;;12.61;76.26;101100.42;2854546;81;21102;-89
2022/10/12 17:18:17;;;;;;;;;;;;;;;12.45;77.02;101100.73;2844682;81;21059;-89
2022/10/12 17:22:18;;;;;;;12.25;7.22;;;;;;;12.29;77.31;101105.06;2863381;80;20107;-90
2022/10/12 17:26:19;;;;;;;13.53;7.12;;;;;;;12.20;77.03;101108.45;2850930;81;21012;-88
2022/10/12 17:30:20;;;;;;;15.60;9.48;;;;;;;12.12;77.10;101112.53;2747334;82;21039;-87
2022/10/12 17:34:29;;;;;;;15.75;9.20;;;;;;;12.05;77.06;101109.09;2842604;82;21078;-87
2022/10/12 17:38:30;;;;;;;14.65;9.38;;;;;;;11.98;77.56;101114.87;2844497;80;21008;-88
2022/10/12 17:42:31;;;;;;;17.17;9.95;;;;;;;11.92;78.44;101109.14;2743475;81;20971;-87
2022/10/12 17:46:33;;;;;;;24.95;11.12;;;;;;;11.75;79.69;101104.58;2826302;82;21552;-87
2022/10/12 17:50:34;;;;;;;40.30;23.32;;;;;;;11.51;81.17;101107.25;2850916;81;21560;-87
2022/10/12 17:54:35;;;;;;;42.20;19.37;;;;;;;11.34;81.69;101106.66;2842618;82;21578;-87
2022/10/12 17:58:36;;;;;;;21.93;9.38;;;;;;;11.32;80.85;101110.38;2836265;82;21041;-88
2022/10/12 18:02:38;;;;;;;22.02;12.30;;;;;;;11.32;81.14;101105.05;2838761;82;21018;-88
2022/10/12 18:06:39;;;;;;;25.88;16.15;;;;;;;11.32;80.67;101110.38;2861552;82;21036;-87
2022/10/12 18:10:41;;;;;;;55.63;30.77;;;;;;;11.23;81.04;101112.75;2841017;82;21042;-88
2022/10/12 18:14:42;;;;;;;41.37;20.70;;;;;;;11.13;81.34;101110.36;2858817;80;21027;-87
2022/10/12 18:18:44;;;;;;;33.23;21.12;;;;;;;11.10;81.80;101113.25;2799180;82;21094;-87
2022/10/12 18:22:45;;;;;;;71.92;40.83;;;;;;;11.06;82.04;101118.42;2858845;80;21034;-87
2022/10/12 18:26:47;;;;;;;97.97;53.13;;;;;;;10.99;81.94;101120.17;2863553;81;21121;-87
2022/10/12 18:30:49;;;;;;;74.50;39.53;;;;;;;10.98;82.16;101119.80;2827322;82;21059;-86
2022/10/12 18:34:52;;;;;;;36.63;25.00;;;;;;;10.93;81.85;101115.28;2858562;81;21455;-86
2022/10/12 18:38:54;;;;;;;68.00;40.25;;;;;;;10.86;81.76;101121.52;2849668;82;21492;-86
2022/10/12 18:42:55;;;;;;;31.97;18.87;;;;;;;10.81;82.13;101124.98;2843168;82;21068;-86
2022/10/12 18:46:56;;;;;;;29.37;16.32;;;;;;;10.81;82.77;101122.32;2854541;82;21027;-87
2022/10/12 18:51:26;;;;;;;27.27;16.12;;;;;;;10.79;83.16;101116.72;2863850;81;21035;-86
2022/10/12 18:55:27;;;;;;;19.37;11.88;;;;;;;10.77;83.19;101115.98;2847416;81;21943;-87